createdAt,value
2023-02-25T00:01:28.763Z,2.3
2023-02-25T00:04:28.783Z,2.3
2023-02-25T00:07:28.796Z,2.3
2023-02-25T00:10:28.785Z,2.3
2023-02-25T00:13:28.779Z,2.3
2023-02-25T00:16:28.877Z,2.3
2023-02-25T00:19:28.788Z,2.2
2023-02-25T00:22:28.789Z,2.2
2023-02-25T00:25:28.803Z,2.2
2023-02-25T00:28:28.797Z,2.1
2023-02-25T00:31:28.866Z,2.1
2023-02-25T00:34:28.831Z,2
2023-02-25T00:37:28.816Z,1.9
2023-02-25T00:40:28.827Z,1.8
2023-02-25T00:43:28.825Z,1.7
2023-02-25T00:46:28.900Z,1.7
2023-02-25T00:49:32.301Z,1.7
2023-02-25T00:52:28.859Z,1.8
2023-02-25T00:55:28.844Z,1.8
2023-02-25T00:58:28.844Z,1.8
2023-02-25T01:01:28.950Z,1.6
2023-02-25T01:04:28.846Z,1.6
2023-02-25T01:07:28.866Z,1.6
2023-02-25T01:10:28.905Z,1.6
2023-02-25T01:13:28.859Z,1.6
2023-02-25T01:16:28.974Z,1.5
2023-02-25T01:19:28.871Z,1.6
2023-02-25T01:22:28.864Z,1.6
2023-02-25T01:25:28.880Z,1.6
2023-02-25T01:28:28.918Z,1.5
2023-02-25T01:31:28.983Z,1.5
2023-02-25T01:34:28.949Z,1.5
2023-02-25T01:37:28.893Z,1.5
2023-02-25T01:40:28.918Z,1.4
2023-02-25T01:43:28.906Z,1.3
2023-02-25T01:46:28.954Z,1.3
2023-02-25T01:49:28.930Z,1.1
2023-02-25T01:52:28.913Z,1.2
2023-02-25T01:55:28.941Z,1
2023-02-25T01:58:28.920Z,0.9
2023-02-25T02:01:28.936Z,1
2023-02-25T02:04:28.962Z,0.9
2023-02-25T02:07:28.943Z,0.8
2023-02-25T02:10:28.950Z,0.9
2023-02-25T02:13:28.943Z,0.8
2023-02-25T02:16:28.985Z,0.8
2023-02-25T02:19:28.949Z,0.8
2023-02-25T02:22:28.981Z,0.8
2023-02-25T02:25:28.979Z,0.8
2023-02-25T02:28:28.967Z,0.9
2023-02-25T02:31:28.993Z,0.9
2023-02-25T02:34:28.970Z,0.9
2023-02-25T02:37:28.979Z,1
2023-02-25T02:40:29.014Z,1
2023-02-25T02:43:29.010Z,0.9
2023-02-25T02:46:28.989Z,0.8
2023-02-25T02:49:28.989Z,0.9
2023-02-25T02:52:28.984Z,0.9
2023-02-25T02:55:28.999Z,0.9
2023-02-25T02:58:29.006Z,0.9
2023-02-25T03:01:29.073Z,0.9
2023-02-25T03:04:28.998Z,0.9
2023-02-25T03:07:28.991Z,1
2023-02-25T03:10:29.009Z,1
2023-02-25T03:13:28.995Z,1
2023-02-25T03:16:29.078Z,1
2023-02-25T03:19:29.001Z,1
2023-02-25T03:22:29.008Z,1
2023-02-25T03:25:29.067Z,1
2023-02-25T03:28:29.014Z,1
2023-02-25T03:31:29.078Z,1.1
2023-02-25T03:34:29.042Z,1
2023-02-25T03:37:29.018Z,1
2023-02-25T03:40:29.063Z,1
2023-02-25T03:43:29.032Z,1
2023-02-25T03:46:29.075Z,1
2023-02-25T03:49:29.055Z,1
2023-02-25T03:52:29.095Z,0.9
2023-02-25T03:55:29.077Z,0.9
2023-02-25T03:58:29.070Z,0.9
2023-02-25T04:01:29.086Z,0.9
2023-02-25T04:04:29.192Z,0.9
2023-02-25T04:07:29.105Z,0.9
2023-02-25T04:10:29.151Z,0.9
2023-02-25T04:13:29.118Z,0.8
2023-02-25T04:16:29.129Z,0.8
2023-02-25T04:19:29.126Z,0.8
2023-02-25T04:22:29.137Z,0.8
2023-02-25T04:25:29.181Z,0.7
2023-02-25T04:28:29.169Z,0.7
2023-02-25T04:31:29.264Z,0.7
2023-02-25T04:34:29.160Z,0.6
2023-02-25T04:37:29.168Z,0.5
2023-02-25T04:40:29.177Z,0.5
2023-02-25T04:43:29.176Z,0.5
2023-02-25T04:46:29.265Z,0.2
2023-02-25T04:49:29.184Z,0.3
2023-02-25T04:52:29.186Z,0.2
2023-02-25T04:55:29.198Z,0.2
2023-02-25T04:58:29.192Z,0.1
2023-02-25T05:01:29.233Z,0.1
2023-02-25T05:04:29.283Z,0.1
2023-02-25T05:07:29.200Z,0.2
2023-02-25T05:10:29.224Z,0.2
2023-02-25T05:13:29.230Z,0.3
2023-02-25T05:16:29.262Z,0.2
2023-02-25T05:19:29.232Z,0.3
2023-02-25T05:22:29.262Z,0.3
2023-02-25T05:25:29.235Z,0.3
2023-02-25T05:28:29.240Z,0.2
2023-02-25T05:31:29.312Z,0.2
2023-02-25T05:34:29.242Z,0.1
2023-02-25T05:37:29.249Z,0.1
2023-02-25T05:40:29.290Z,0.1
2023-02-25T05:43:29.262Z,0.1
2023-02-25T05:46:29.276Z,0
2023-02-25T05:49:29.270Z,-0.1
2023-02-25T05:52:29.273Z,-0.2
2023-02-25T05:55:29.286Z,-0.2
2023-02-25T05:58:29.311Z,-0.2
2023-02-25T06:01:29.316Z,-0.2
2023-02-25T06:04:29.285Z,-0.3
2023-02-25T06:07:29.299Z,-0.4
2023-02-25T06:10:29.309Z,-0.5
2023-02-25T06:13:29.319Z,-0.6
2023-02-25T06:16:29.396Z,-0.5
2023-02-25T06:19:29.400Z,-0.6
2023-02-25T06:22:29.373Z,-0.6
2023-02-25T06:25:29.390Z,-0.6
2023-02-25T06:28:29.388Z,-0.6
2023-02-25T06:31:29.417Z,-0.7
2023-02-25T06:34:29.413Z,-0.6
2023-02-25T06:37:29.394Z,-0.6
2023-02-25T06:40:29.408Z,-0.6
2023-02-25T06:43:29.391Z,-0.6
2023-02-25T06:46:29.513Z,-0.7
2023-02-25T06:49:29.401Z,-0.7
2023-02-25T06:52:29.415Z,-0.7
2023-02-25T06:55:29.401Z,-0.7
2023-02-25T06:58:29.389Z,-0.7
2023-02-25T07:01:29.438Z,-0.7
2023-02-25T07:04:29.397Z,-0.8
2023-02-25T07:07:29.398Z,-0.7
2023-02-25T07:10:29.527Z,-0.8
2023-02-25T07:13:29.405Z,-0.7
2023-02-25T07:16:29.406Z,-0.7
2023-02-25T07:19:29.403Z,-0.7
2023-02-25T07:22:29.405Z,-0.7
2023-02-25T07:25:29.472Z,-0.6
2023-02-25T07:28:29.429Z,-0.6
2023-02-25T07:31:29.647Z,-0.6
2023-02-25T07:34:29.410Z,-0.5
2023-02-25T07:37:29.410Z,-0.6
2023-02-25T07:40:29.424Z,-0.5
2023-02-25T07:43:29.418Z,-0.5
2023-02-25T07:46:29.472Z,-0.4
2023-02-25T07:49:29.423Z,-0.4
2023-02-25T07:52:29.416Z,-0.2
2023-02-25T07:55:29.428Z,-0.2
2023-02-25T07:58:29.431Z,-0.2
2023-02-25T08:01:29.431Z,-0.2
2023-02-25T08:04:29.487Z,0
2023-02-25T08:07:29.431Z,0
2023-02-25T08:10:29.433Z,0
2023-02-25T08:13:29.432Z,0
2023-02-25T08:16:29.430Z,0.1
2023-02-25T08:19:29.439Z,0
2023-02-25T08:22:29.485Z,0
2023-02-25T08:25:29.446Z,0
2023-02-25T08:28:31.822Z,0
2023-02-25T08:31:29.771Z,0.1
2023-02-25T08:34:29.523Z,0.1
2023-02-25T08:37:29.460Z,0
2023-02-25T08:40:29.484Z,0.1
2023-02-25T08:43:29.449Z,0.3
2023-02-25T08:46:29.525Z,0.2
2023-02-25T08:49:29.449Z,0.2
2023-02-25T08:52:29.459Z,0.2
2023-02-25T08:55:29.462Z,0.1
2023-02-25T08:58:29.501Z,-0.1
2023-02-25T09:01:29.540Z,-0.2
2023-02-25T09:04:29.496Z,-0.2
2023-02-25T09:07:29.464Z,-0.3
2023-02-25T09:10:34.097Z,-0.3
2023-02-25T09:13:29.491Z,-0.3
2023-02-25T09:16:29.527Z,-0.1
2023-02-25T09:19:29.481Z,0
2023-02-25T09:22:29.487Z,0.1
2023-02-25T09:25:29.497Z,0.3
2023-02-25T09:28:29.487Z,0.3
2023-02-25T09:31:29.645Z,0.5
2023-02-25T09:34:29.525Z,0.6
2023-02-25T09:37:29.510Z,0.6
2023-02-25T09:40:29.538Z,0.4
2023-02-25T09:43:29.518Z,0.4
2023-02-25T09:46:29.529Z,-0.3
2023-02-25T09:49:29.529Z,-0.4
2023-02-25T09:52:29.563Z,-0.4
2023-02-25T09:55:29.556Z,-0.3
2023-02-25T09:58:29.549Z,-0.3
2023-02-25T10:01:29.556Z,-0.2
2023-02-25T10:04:29.564Z,-0.2
2023-02-25T10:07:29.583Z,-0.1
2023-02-25T10:10:29.615Z,0
2023-02-25T10:13:29.589Z,0.2
2023-02-25T10:16:29.627Z,0.4
2023-02-25T10:19:29.599Z,0.6
2023-02-25T10:22:29.615Z,0.9
2023-02-25T10:25:29.627Z,0.9
2023-02-25T10:28:29.647Z,1
2023-02-25T10:31:29.760Z,1.1
2023-02-25T10:34:29.664Z,0.7
2023-02-25T10:37:29.644Z,0.7
2023-02-25T10:40:29.676Z,0.6
2023-02-25T10:43:29.663Z,0.6
2023-02-25T10:46:29.745Z,0.7
2023-02-25T10:49:29.667Z,0.6
2023-02-25T10:52:29.678Z,-0.5
2023-02-25T10:55:29.691Z,-0.6
2023-02-25T10:58:29.695Z,-0.8
2023-02-25T11:01:29.714Z,-0.9
2023-02-25T11:04:29.722Z,-1.1
2023-02-25T11:07:29.706Z,-1
2023-02-25T11:10:29.724Z,-0.9
2023-02-25T11:13:29.751Z,-0.7
2023-02-25T11:16:30.807Z,-0.5
2023-02-25T11:19:29.725Z,-0.4
2023-02-25T11:22:29.759Z,-0.6
2023-02-25T11:25:29.756Z,-0.6
2023-02-25T11:28:29.740Z,-0.6
2023-02-25T11:31:30.129Z,-0.7
2023-02-25T11:34:29.739Z,-0.7
2023-02-25T11:37:29.744Z,-0.6
2023-02-25T11:40:29.783Z,-0.4
2023-02-25T11:43:29.763Z,-0.1
2023-02-25T11:46:29.833Z,0
2023-02-25T11:49:29.757Z,0.1
2023-02-25T11:52:29.759Z,0.3
2023-02-25T11:55:29.776Z,0
2023-02-25T11:58:29.799Z,-0.2
2023-02-25T12:01:29.779Z,-0.2
2023-02-25T12:04:29.781Z,-0.2
2023-02-25T12:07:29.783Z,-0.3
2023-02-25T12:10:29.802Z,0.1
2023-02-25T12:13:29.889Z,0.5
2023-02-25T12:16:29.914Z,0.6
2023-02-25T12:19:29.806Z,0.3
2023-02-25T12:22:29.805Z,0
2023-02-25T12:25:29.827Z,0.3
2023-02-25T12:28:29.826Z,0.5
2023-02-25T12:31:29.867Z,0.6
2023-02-25T12:34:29.853Z,0.8
2023-02-25T12:37:29.836Z,0.4
2023-02-25T12:40:29.849Z,-0.3
2023-02-25T12:43:29.864Z,-0.4
2023-02-25T12:46:29.845Z,-0.2
2023-02-25T12:49:29.853Z,-0.4
2023-02-25T12:52:29.878Z,-0.5
2023-02-25T12:55:29.874Z,-0.3
2023-02-25T12:58:29.869Z,-0.3
2023-02-25T13:01:29.952Z,-0.2
2023-02-25T13:04:29.899Z,-0.6
2023-02-25T13:07:29.885Z,-0.5
2023-02-25T13:10:30.013Z,-0.6
2023-02-25T13:13:29.890Z,-0.6
2023-02-25T13:16:29.913Z,-0.7
2023-02-25T13:19:29.898Z,-0.6
2023-02-25T13:22:29.908Z,-0.8
2023-02-25T13:25:29.910Z,-0.8
2023-02-25T13:28:29.933Z,-1.1
2023-02-25T13:31:29.931Z,-1.4
2023-02-25T13:34:29.918Z,-1.2
2023-02-25T13:37:29.926Z,-1.2
2023-02-25T13:40:29.925Z,-1.1
2023-02-25T13:43:29.936Z,-1.1
2023-02-25T13:46:29.960Z,-1.1
2023-02-25T13:49:29.946Z,-1
2023-02-25T13:52:29.942Z,-0.9
2023-02-25T13:55:29.965Z,-0.9
2023-02-25T13:58:29.962Z,-0.9
2023-02-25T14:01:30.064Z,-1.3
2023-02-25T14:04:29.999Z,-1.3
2023-02-25T14:07:29.969Z,-1.1
2023-02-25T14:10:29.982Z,-1.6
2023-02-25T14:13:29.977Z,-1.6
2023-02-25T14:16:29.997Z,-1.9
2023-02-25T14:19:29.984Z,-2.1
2023-02-25T14:22:30.017Z,-2.2
2023-02-25T14:25:29.999Z,-1.8
2023-02-25T14:28:30.001Z,-1.9
2023-02-25T14:31:30.142Z,-1.6
2023-02-25T14:34:30.015Z,-1.5
2023-02-25T14:37:30.012Z,-1.5
2023-02-25T14:40:30.053Z,-1.6
2023-02-25T14:43:30.019Z,-1.4
2023-02-25T14:46:30.073Z,-1.4
2023-02-25T14:49:30.029Z,-1.1
2023-02-25T14:52:30.031Z,-1.3
2023-02-25T14:55:30.033Z,-1.2
2023-02-25T14:58:30.064Z,-1.6
2023-02-25T15:01:30.070Z,-1.9
2023-02-25T15:04:30.050Z,-1.8
2023-02-25T15:07:30.054Z,-1.8
2023-02-25T15:10:30.069Z,-1.6
2023-02-25T15:13:30.058Z,-1.7
2023-02-25T15:16:30.091Z,-1.6
2023-02-25T15:19:30.066Z,-1.8
2023-02-25T15:22:30.114Z,-2.1
2023-02-25T15:25:30.073Z,-2.7
2023-02-25T15:28:30.161Z,-3.2
2023-02-25T15:31:30.190Z,-3.3
2023-02-25T15:34:30.107Z,-3.5
2023-02-25T15:37:30.093Z,-3.3
2023-02-25T15:40:30.094Z,-3.4
2023-02-25T15:43:30.095Z,-3.7
2023-02-25T15:46:30.156Z,-3.7
2023-02-25T15:49:30.111Z,-3.5
2023-02-25T15:52:30.200Z,-3.8
2023-02-25T15:55:30.120Z,-3.8
2023-02-25T15:58:30.124Z,-3.7
2023-02-25T16:01:30.198Z,-3.7
2023-02-25T16:04:30.126Z,-3.6
2023-02-25T16:07:30.147Z,-3.4
2023-02-25T16:10:30.161Z,-3.7
2023-02-25T16:13:30.142Z,-3.8
2023-02-25T16:16:30.217Z,-3.9
2023-02-25T16:19:30.148Z,-4
2023-02-25T16:22:30.152Z,-3.9
2023-02-25T16:25:30.153Z,-3.9
2023-02-25T16:28:30.177Z,-4
2023-02-25T16:31:30.197Z,-3.7
2023-02-25T16:34:30.164Z,-3.4
2023-02-25T16:37:30.163Z,-3.3
2023-02-25T16:40:30.177Z,-3.2
2023-02-25T16:43:30.173Z,-3.2
2023-02-25T16:46:30.204Z,-3.2
2023-02-25T16:49:30.186Z,-3.2
2023-02-25T16:52:30.185Z,-3.1
2023-02-25T16:55:30.205Z,-3.4
2023-02-25T16:58:30.199Z,-3.3
2023-02-25T17:01:30.306Z,-3.3
2023-02-25T17:04:30.241Z,-3.2
2023-02-25T17:07:30.329Z,-3.3
2023-02-25T17:10:30.216Z,-3.3
2023-02-25T17:13:30.220Z,-3.4
2023-02-25T17:16:30.255Z,-3.3
2023-02-25T17:19:30.224Z,-3.4
2023-02-25T17:22:30.262Z,-3.3
2023-02-25T17:25:30.229Z,-3.5
2023-02-25T17:28:30.247Z,-3.4
2023-02-25T17:31:30.332Z,-3
2023-02-25T17:34:30.252Z,-3.2
2023-02-25T17:37:30.252Z,-3.2
2023-02-25T17:40:30.279Z,-3.4
2023-02-25T17:43:30.260Z,-3.5
2023-02-25T17:46:30.391Z,-3.7
2023-02-25T17:49:30.265Z,-3.8
2023-02-25T17:52:30.261Z,-3.8
2023-02-25T17:55:30.267Z,-3.8
2023-02-25T17:58:30.288Z,-3.8
2023-02-25T18:01:30.276Z,-3.8
2023-02-25T18:04:30.277Z,-3.8
2023-02-25T18:07:30.277Z,-3.8
2023-02-25T18:10:30.275Z,-3.8
2023-02-25T18:13:30.283Z,-3.8
2023-02-25T18:16:30.389Z,-3.8
2023-02-25T18:19:30.321Z,-3.8
2023-02-25T18:22:30.285Z,-4
2023-02-25T18:25:30.310Z,-3.9
2023-02-25T18:28:30.290Z,-3.9
2023-02-25T18:31:30.435Z,-4
2023-02-25T18:34:30.305Z,-4
2023-02-25T18:37:30.299Z,-4
2023-02-25T18:40:30.324Z,-4
2023-02-25T18:43:30.328Z,-4
2023-02-25T18:46:30.436Z,-4
2023-02-25T18:49:30.351Z,-4
2023-02-25T18:52:30.387Z,-4
2023-02-25T18:55:30.366Z,-4.1
2023-02-25T18:58:30.375Z,-4.1
2023-02-25T19:01:30.564Z,-4.1
2023-02-25T19:04:30.399Z,-4.2
2023-02-25T19:07:30.399Z,-4.2
2023-02-25T19:10:30.484Z,-4.2
2023-02-25T19:13:30.415Z,-4.3
2023-02-25T19:16:30.445Z,-4.2
2023-02-25T19:19:30.433Z,-4.2
2023-02-25T19:22:30.447Z,-4.2
2023-02-25T19:25:30.465Z,-4.3
2023-02-25T19:28:30.478Z,-4.2
2023-02-25T19:31:30.514Z,-4.2
2023-02-25T19:34:30.489Z,-4.1
2023-02-25T19:37:30.513Z,-4.1
2023-02-25T19:40:30.530Z,-4
2023-02-25T19:43:30.496Z,-4.1
2023-02-25T19:46:30.514Z,-4.1
2023-02-25T19:49:30.467Z,-4
2023-02-25T19:52:30.492Z,-4.1
2023-02-25T19:55:30.494Z,-4.1
2023-02-25T19:58:30.501Z,-4.1
2023-02-25T20:01:30.520Z,-4.1
2023-02-25T20:04:30.562Z,-4.1
2023-02-25T20:07:30.541Z,-4.1
2023-02-25T20:10:30.540Z,-4
2023-02-25T20:13:30.549Z,-4
2023-02-25T20:16:30.581Z,-4
2023-02-25T20:19:30.566Z,-4
2023-02-25T20:22:30.582Z,-4
2023-02-25T20:25:30.562Z,-3.9
2023-02-25T20:28:30.567Z,-3.8
2023-02-25T20:31:30.633Z,-3.8
2023-02-25T20:34:30.580Z,-3.8
2023-02-25T20:37:30.582Z,-3.8
2023-02-25T20:40:30.606Z,-3.8
2023-02-25T20:43:30.584Z,-3.7
2023-02-25T20:46:30.584Z,-3.7
2023-02-25T20:49:30.594Z,-3.7
2023-02-25T20:52:30.595Z,-3.7
2023-02-25T20:55:30.620Z,-3.7
2023-02-25T20:58:30.623Z,-3.7
2023-02-25T21:01:30.603Z,-3.7
2023-02-25T21:04:30.632Z,-3.7
2023-02-25T21:07:30.605Z,-3.7
2023-02-25T21:10:30.612Z,-3.6
2023-02-25T21:13:30.614Z,-3.6
2023-02-25T21:16:30.669Z,-3.7
2023-02-25T21:19:30.631Z,-3.6
2023-02-25T21:22:30.626Z,-3.6
2023-02-25T21:25:30.635Z,-3.7
2023-02-25T21:28:30.635Z,-3.7
2023-02-25T21:31:30.711Z,-3.7
2023-02-25T21:34:30.672Z,-3.7
2023-02-25T21:37:30.646Z,-3.7
2023-02-25T21:40:30.660Z,-3.7
2023-02-25T21:43:30.655Z,-3.7
2023-02-25T21:46:30.755Z,-3.7
2023-02-25T21:49:31.815Z,-3.7
2023-02-25T21:52:30.698Z,-3.7
2023-02-25T21:55:30.682Z,-3.6
2023-02-25T21:58:30.681Z,-3.6
2023-02-25T22:01:30.726Z,-3.6
2023-02-25T22:04:30.793Z,-3.5
2023-02-25T22:07:30.699Z,-3.5
2023-02-25T22:10:30.719Z,-3.5
2023-02-25T22:13:30.703Z,-3.6
2023-02-25T22:16:30.708Z,-3.5
2023-02-25T22:19:30.711Z,-3.5
2023-02-25T22:22:30.705Z,-3.5
2023-02-25T22:25:30.712Z,-3.6
2023-02-25T22:28:30.745Z,-3.7
2023-02-25T22:31:30.779Z,-3.7
2023-02-25T22:34:30.727Z,-3.8
2023-02-25T22:37:30.732Z,-3.8
2023-02-25T22:40:30.736Z,-3.8
2023-02-25T22:43:30.740Z,-3.8
2023-02-25T22:46:30.822Z,-3.8
2023-02-25T22:49:30.751Z,-3.8
2023-02-25T22:52:30.754Z,-3.9
2023-02-25T22:55:30.758Z,-3.8
2023-02-25T22:58:30.764Z,-3.8
2023-02-25T23:01:30.803Z,-3.8
2023-02-25T23:04:30.798Z,-3.8
2023-02-25T23:07:30.798Z,-3.8
2023-02-25T23:10:30.796Z,-3.7
2023-02-25T23:13:30.793Z,-3.6
2023-02-25T23:16:30.836Z,-3.6
2023-02-25T23:19:30.803Z,-3.5
2023-02-25T23:22:30.832Z,-3.4
2023-02-25T23:25:30.815Z,-3.3
2023-02-25T23:28:30.815Z,-3.3
2023-02-25T23:31:30.862Z,-3.3
2023-02-25T23:34:30.820Z,-3.2
2023-02-25T23:37:30.830Z,-3.3
2023-02-25T23:40:30.864Z,-3.2
2023-02-25T23:43:30.842Z,-3.2
2023-02-25T23:46:30.873Z,-3.2
2023-02-25T23:49:30.895Z,-3.2
2023-02-25T23:52:30.846Z,-3.3
2023-02-25T23:55:30.855Z,-3.3
2023-02-25T23:58:30.886Z,-3.3
